Tuesday, February 20, 2018, 4:40 AM EST
Back to Local

KIPT, Williamsport-lycoming County

Location: Montoursville, PA, United States Lat: 41.25
Local Time: 4:40 AM EST ( 9:40 GMT) Lon: -76.917
Time Zone: US/Eastern Elev: 528 ft

Show me the last for .
Show Decoded

2018-02-20 04:06 METAR KIPT 200906Z AUTO 12003KT 7SM OVC005 06/06 A3025 RMK AO2 T00610061 =
2018-02-20 03:54 METAR KIPT 200854Z AUTO VRB05KT 6SM BR OVC006 06/06 A3024 RMK AO2 CIG 003V009
                 SLP245 T00610061 58008 =
2018-02-20 03:20 METAR KIPT 200820Z AUTO 12006KT 7SM OVC006 06/06 A3024 RMK AO2 CIG 004V009
                 T00560056 =
2018-02-20 02:54 METAR KIPT 200754Z AUTO 10007KT 6SM BR OVC005 06/06 A3025 RMK AO2 CIG 004V008
                 SLP247 T00560056 =
2018-02-20 02:37 METAR KIPT 200737Z AUTO 11006KT 4SM BR OVC005 06/06 A3025 RMK AO2 T00560056 =
2018-02-20 02:27 METAR KIPT 200727Z AUTO 12004KT 3SM BR OVC004 05/05 A3026 RMK AO2 T00500050 =
2018-02-20 02:17 METAR KIPT 200717Z AUTO 10006KT 1 1/2SM BR OVC004 05/05 A3026 RMK AO2 CIG
                 002V006 T00500050 =
2018-02-20 01:51 METAR KIPT 200651Z AUTO 17003KT 2SM BR OVC004 05/05 A3026 RMK AO2 CIG 002V007
                 SLP252 T00500050 =
2018-02-20 01:50 METAR KIPT 200650Z AUTO VRB03KT 2SM BR OVC004 05/05 A3027 RMK AO2 CIG 002V007 =
2018-02-20 01:33 METAR KIPT 200633Z AUTO 15004KT 1 1/2SM BR OVC005 05/05 A3026 RMK AO2 T00500050
                 =
2018-02-20 01:20 METAR KIPT 200620Z AUTO 17004KT 1 1/2SM BR OVC004 05/05 A3027 RMK AO2 T00500050
                 =
2018-02-20 01:13 METAR KIPT 200613Z AUTO 16003KT 2SM BR OVC004 05/05 A3027 RMK AO2 T00500050 =
2018-02-20 00:54 METAR KIPT 200554Z AUTO 16003KT 1 1/2SM BR BKN002 OVC006 04/04 A3027 RMK AO2
                 SLP253 T00440044 10056 20039 58004 =
2018-02-20 00:43 METAR KIPT 200543Z AUTO 00000KT 2 1/2SM BR OVC004 05/05 A3027 RMK AO2 T00500050
                 =
2018-02-19 23:54 METAR KIPT 200454Z AUTO 08005KT 1SM BR VV003 04/04 A3027 RMK AO2 SLP254
                 T00440044 400561033 =
2018-02-19 23:21 METAR KIPT 200421Z AUTO 16007KT 3/4SM BR OVC003 04/04 A3028 RMK AO2 T00390039 =
2018-02-19 22:54 METAR KIPT 200354Z AUTO 08006KT 1 3/4SM BR OVC004 06/05 A3028 RMK AO2 SLP257
                 T00560050 =
2018-02-19 22:33 METAR KIPT 200333Z AUTO 08006KT 2 1/2SM BR OVC003 05/05 A3027 RMK AO2 CIG
                 002V006 T00500050 =
2018-02-19 22:24 METAR KIPT 200324Z 05009KT 1 1/2SM BR OVC003 05/05 A3027 RMK AO2 T00500050 =
2018-02-19 22:16 METAR KIPT 200316Z 18004KT 2SM BR OVC003 04/04 A3027 RMK AO2 T00440044 =
2018-02-19 21:54 METAR KIPT 200254Z 13007KT 090V170 1 1/2SM BR OVC002 04/04 A3027 RMK AO2 SLP253
                 T00440044 56008 =
2018-02-19 20:54 METAR KIPT 200154Z 05009KT 1 1/4SM BR BKN002 OVC006 04/04 A3027 RMK AO2 SLP255
                 T00440039 =
2018-02-19 20:52 METAR KIPT 200152Z 05007KT 1 1/4SM BR BKN002 OVC006 04/04 A3028 RMK AO2 =
2018-02-19 20:39 METAR KIPT 200139Z 00000KT 2SM BR OVC004 04/04 A3028 RMK AO2 T00390039 =
2018-02-19 20:27 METAR KIPT 200127Z 05008KT 3SM BR OVC004 05/04 A3027 RMK AO2 T00500044 =
2018-02-19 20:17 METAR KIPT 200117Z VRB04KT 1 3/4SM BR OVC004 04/04 A3026 RMK AO2 T00390039 =
2018-02-19 19:54 METAR KIPT 200054Z 14003KT 5SM BR OVC008 04/04 A3029 RMK AO2 CIG 005V010 SLP261
                 T00390039 =
2018-02-19 18:54 METAR KIPT 192354Z 05004KT 8SM OVC009 05/04 A3029 RMK AO2 CIG 007V014 SLP262
                 60016 T00500039 10050 20039 53008 =
2018-02-19 18:46 METAR KIPT 192346Z 09007KT 7SM OVC010 04/03 A3029 RMK AO2 CIG 007V014 T00440033
                 =
2018-02-19 18:03 METAR KIPT 192303Z 00000KT 10SM OVC009 05/04 A3028 RMK AO2 CIG 008V012 T00500039
                 =
2018-02-19 17:54 METAR KIPT 192254Z 00000KT 10SM OVC010 04/04 A3028 RMK AO2 RAB2158E16 CIG
                 008V013 SLP257 P0000 T00440039 =
2018-02-19 17:50 METAR KIPT 192250Z VRB03KT 10SM OVC010 04/04 A3027 RMK AO2 RAB2158E16 CIG
                 008V013 P0000 =
2018-02-19 17:28 METAR KIPT 192228Z 10007KT 8SM OVC009 04/04 A3027 RMK AO2 RAB2158E16 CIG 009V012
                 P0000 T00440039 =
2018-02-19 16:54 METAR KIPT 192154Z 08007KT 10SM OVC011 04/03 A3027 RMK AO2 RAE44 SLP254 P0002
                 T00440033 =
2018-02-19 15:54 METAR KIPT 192054Z VRB05KT 8SM -RA OVC010 04/03 A3027 RMK AO2 CIG 010V015 SLP254
                 P0007 60014 T00440028 56019 =
2018-02-19 14:54 METAR KIPT 191954Z 05006KT 7SM -RA OVC012 04/03 A3029 RMK AO2 SLP261 P0006
                 T00440028 =
2018-02-19 13:54 METAR KIPT 191854Z VRB05KT 7SM -RA OVC014 04/02 A3029 RMK AO2 RAB1756 SLP261
                 P0001 T00390022 =
2018-02-19 13:46 METAR KIPT 191846Z 12007G16KT 080V180 8SM -RA OVC014 04/02 A3029 RMK AO2 RAB1756
                 P0000 T00390017 =
2018-02-19 13:35 METAR KIPT 191835Z 08011KT 6SM -RA BR OVC015 04/02 A3028 RMK AO2 RAB1756 PRESFR
                 P0000 T00390017 =
2018-02-19 12:54 METAR KIPT 191754Z 04008G14KT 10SM OVC014 04/01 A3032 RMK AO2 RAB16E30 SLP273
                 P0000 60000 T00440011 10044 20028 55020 =
2018-02-19 11:54 METAR KIPT 191654Z 14007G27KT 060V190 10SM OVC014 04/01 A3032 RMK AO2 PK WND
                 05027/1648 SLP272 T00390011 =
2018-02-19 10:54 METAR KIPT 191554Z 09008G25KT 10SM OVC017 04/01 A3036 RMK AO2 SLP288 T00390006 =
2018-02-19 09:54 METAR KIPT 191454Z 06011G19KT 4SM HZ OVC020 03/00 A3038 RMK AO2 RAB35E41 SLP294
                 P0000 60000 T00330000 51002 =
2018-02-19 08:54 METAR KIPT 191354Z 06011G17KT 10SM BKN023 BKN045 OVC060 04/M01 A3038 RMK AO2 PK
                 WND 07029/1326 SLP293 T00391011 =
2018-02-19 08:52 METAR KIPT 191352Z 08009G15KT 050V140 10SM BKN023 BKN045 OVC060 04/M01 A3039 RMK
                 AO2 PK WND 07029/1326 =
2018-02-19 07:54 METAR KIPT 191254Z 12013G23KT 10SM OVC065 03/M01 A3038 RMK AO2 PK WND 14031/1212
                 SLP292 T00281011 =
2018-02-19 06:54 METAR KIPT 191154Z 13008G20KT 110V170 10SM BKN065 BKN110 03/M02 A3038 RMK AO2
                 SLP291 T00281017 10028 21033 58008 =
2018-02-19 05:54 METAR KIPT 191054Z AUTO 09009KT 060V130 10SM CLR 02/M03 A3039 RMK AO2 SLP295
                 T00171028 =
2018-02-19 04:54 METAR KIPT 190954Z AUTO 11010G18KT 10SM CLR 02/M03 A3039 RMK AO2 SLP295
                 T00221028 =

Support USWX by starting your Amazon purchase here.